This is the latest recevied weather packets stored in our database for station/object IT9DBI-3. If no packets are shown the sender has not sent any weather packets the latest 10 day(s).
| Time | Temp. | Humidity | Pressure | Rain* | Wind** | Luminosity | Snow |
|---|---|---|---|---|---|---|---|
| 1777661424 | 14.44° C | 65% | 1019.1 hPa | - | - | - | - |
| 1777660218 | 14.44° C | 64% | 1018.7 hPa | - | - | - | - |
| 1777659011 | 15° C | 63% | 1018.4 hPa | - | - | - | - |
| 1777657805 | 16.11° C | 55% | 1018.3 hPa | - | - | - | - |
| 1777656603 | 16.67° C | 44% | 1018 hPa | - | - | - | - |
| 1777655401 | 16.67° C | 47% | 1017.9 hPa | - | - | - | - |
| 1777654200 | 17.22° C | 47% | 1017.6 hPa | - | - | - | - |
| 1777652999 | 17.22° C | 47% | 1017.5 hPa | - | - | - | - |
| 1777651798 | 18.33° C | 46% | 1017.4 hPa | - | - | - | - |
| 1777650596 | 19.44° C | 46% | 1017.4 hPa | - | - | - | - |
| 1777649394 | 19.44° C | 46% | 1017.4 hPa | - | - | - | - |
| 1777648192 | 18.89° C | 48% | 1017.5 hPa | - | - | - | - |
| 1777646991 | 18.33° C | 51% | 1017.6 hPa | - | - | - | - |
| 1777645789 | 18.89° C | 49% | 1017.6 hPa | - | - | - | - |
| 1777643373 | 18.89° C | 51% | 1017.8 hPa | - | - | - | - |
| 1777642170 | 17.78° C | 49% | 1017.9 hPa | - | - | - | - |
| 1777640969 | 18.89° C | 48% | 1018.1 hPa | - | - | - | - |
| 1777639768 | 18.89° C | 50% | 1018.1 hPa | - | - | - | - |
| 1777638566 | 19.44° C | 49% | 1018.1 hPa | - | - | - | - |
| 1777634939 | 20° C | 50% | 1018.3 hPa | - | - | - | - |
| 1777633738 | 18.33° C | 54% | 1018.4 hPa | - | - | - | - |
| 1777632537 | 19.44° C | 54% | 1018.4 hPa | - | - | - | - |
| 1777631335 | 18.89° C | 58% | 1018.4 hPa | - | - | - | - |
| 1777630134 | 19.44° C | 55% | 1018.3 hPa | - | - | - | - |
| 1777628933 | 18.89° C | 58% | 1018.2 hPa | - | - | - | - |
* Rain since midnight (hover to see other rain measurements)
** Current wind speed in m/s (hover to see current wind gust speed)